createdAt,value
2018-11-04T00:02:21.275Z,22.13
2018-11-04T00:04:49.694Z,20.07
2018-11-04T00:07:24.623Z,20.13
2018-11-04T00:09:52.996Z,20.43
2018-11-04T00:12:21.469Z,22.20
2018-11-04T00:14:49.926Z,19.37
2018-11-04T00:17:18.641Z,22.03
2018-11-04T00:19:47.082Z,21.30
2018-11-04T00:22:15.531Z,20.20
2018-11-04T00:24:43.937Z,21.17
2018-11-04T00:27:12.444Z,19.87
2018-11-04T00:29:40.864Z,21.43
2018-11-04T00:32:09.516Z,22.97
2018-11-04T00:34:37.983Z,21.10
2018-11-04T00:37:06.625Z,19.50
2018-11-04T00:39:35.003Z,21.20
2018-11-04T00:42:03.399Z,21.63
2018-11-04T00:44:31.703Z,22.53
2018-11-04T00:47:00.127Z,21.57
2018-11-04T00:49:28.588Z,20.73
2018-11-04T00:51:57.025Z,24.47
2018-11-04T00:54:25.425Z,22.80
2018-11-04T00:56:54.068Z,22.27
2018-11-04T00:59:22.461Z,22.57
2018-11-04T01:01:50.853Z,22.07
2018-11-04T01:04:19.299Z,21.97
2018-11-04T01:06:47.640Z,23.97
2018-11-04T01:09:16.519Z,22.80
2018-11-04T01:11:44.868Z,21.50
2018-11-04T01:14:13.241Z,22.20
2018-11-04T01:16:41.599Z,20.30
2018-11-04T01:19:10.003Z,16.83
2018-11-04T01:21:38.444Z,17.07
2018-11-04T01:24:06.808Z,17.23
2018-11-04T01:26:35.201Z,14.70
2018-11-04T01:29:03.640Z,13.80
2018-11-04T01:31:32.378Z,15.70
2018-11-04T01:34:00.876Z,15.73
2018-11-04T01:36:29.279Z,16.47
2018-11-04T01:38:57.708Z,17.00
2018-11-04T01:41:26.069Z,19.43
2018-11-04T01:43:54.470Z,18.60
2018-11-04T01:46:22.859Z,15.83
2018-11-04T01:48:51.264Z,17.90
2018-11-04T01:51:19.708Z,17.93
2018-11-04T01:53:48.088Z,17.67
2018-11-04T01:56:16.503Z,18.23
2018-11-04T01:58:45.569Z,16.53
2018-11-04T02:01:14.275Z,16.07
2018-11-04T02:03:42.658Z,18.60
2018-11-04T02:06:11.284Z,16.83
2018-11-04T02:08:39.683Z,14.63
2018-11-04T02:11:08.095Z,14.97
2018-11-04T02:13:36.571Z,12.93
2018-11-04T02:16:05.006Z,14.30
2018-11-04T02:18:33.435Z,10.67
2018-11-04T02:21:01.847Z,9.90
2018-11-04T02:23:30.257Z,11.63
2018-11-04T02:25:58.684Z,10.13
2018-11-04T02:28:27.096Z,9.73
2018-11-04T02:30:55.512Z,9.57
2018-11-04T02:33:23.950Z,11.30
2018-11-04T02:35:52.376Z,11.07
2018-11-04T02:38:20.749Z,11.87
2018-11-04T02:40:50.098Z,10.53
2018-11-04T02:43:18.539Z,11.10
2018-11-04T02:45:46.951Z,11.43
2018-11-04T02:48:15.372Z,12.37
2018-11-04T02:50:43.773Z,13.23
2018-11-04T02:53:12.199Z,12.47
2018-11-04T02:55:40.625Z,14.60
2018-11-04T02:58:09.096Z,12.70
2018-11-04T03:00:37.534Z,12.37
2018-11-04T03:03:06.834Z,10.73
2018-11-04T03:05:35.244Z,12.33
2018-11-04T03:08:03.617Z,11.63
2018-11-04T03:10:32.020Z,14.00
2018-11-04T03:13:00.445Z,12.40
2018-11-04T03:15:28.796Z,13.23
2018-11-04T03:17:57.252Z,12.60
2018-11-04T03:20:25.692Z,12.70
2018-11-04T03:22:54.103Z,12.73
2018-11-04T03:25:22.491Z,12.97
2018-11-04T03:27:50.954Z,11.80
2018-11-04T03:30:19.349Z,11.80
2018-11-04T03:32:47.768Z,12.07
2018-11-04T03:35:16.181Z,11.13
2018-11-04T03:37:44.573Z,10.47
2018-11-04T03:40:13.683Z,11.47
2018-11-04T03:42:42.532Z,9.33
2018-11-04T03:45:11.312Z,8.60
2018-11-04T03:47:39.927Z,8.83
2018-11-04T03:50:09.826Z,8.57
2018-11-04T03:52:38.245Z,8.50
2018-11-04T03:55:07.508Z,8.57
2018-11-04T03:57:35.919Z,8.13
2018-11-04T04:00:04.511Z,10.13
2018-11-04T04:02:32.909Z,8.83
2018-11-04T04:05:01.310Z,8.83
2018-11-04T04:07:29.807Z,8.13
2018-11-04T04:09:58.293Z,8.37
2018-11-04T04:12:26.807Z,8.40
2018-11-04T04:14:55.211Z,8.10
2018-11-04T04:17:23.580Z,9.43
2018-11-04T04:19:51.911Z,7.57
2018-11-04T04:22:20.345Z,8.70
2018-11-04T04:24:50.829Z,8.07
2018-11-04T04:27:19.276Z,9.60
2018-11-04T04:29:47.694Z,9.00
2018-11-04T04:32:16.148Z,9.03
2018-11-04T04:34:44.600Z,8.50
2018-11-04T04:37:13.083Z,7.97
2018-11-04T04:39:41.608Z,8.03
2018-11-04T04:42:10.009Z,8.80
2018-11-04T04:44:38.412Z,9.03
2018-11-04T04:47:06.802Z,7.83
2018-11-04T04:49:35.257Z,7.93
2018-11-04T04:52:03.716Z,8.27
2018-11-04T04:54:32.067Z,9.47
2018-11-04T04:57:00.477Z,9.10
2018-11-04T04:59:28.911Z,11.27
2018-11-04T05:01:57.383Z,9.13
2018-11-04T05:04:25.784Z,8.60
2018-11-04T05:06:54.206Z,8.67
2018-11-04T05:09:22.625Z,9.53
2018-11-04T05:11:51.344Z,8.83
2018-11-04T05:14:19.776Z,8.07
2018-11-04T05:16:48.129Z,10.23
2018-11-04T05:19:16.514Z,9.07
2018-11-04T05:21:45.630Z,9.13
2018-11-04T05:24:14.089Z,8.20
2018-11-04T05:26:42.553Z,10.10
2018-11-04T05:29:10.933Z,8.97
2018-11-04T05:31:39.352Z,10.47
2018-11-04T05:34:07.736Z,9.30
2018-11-04T05:36:36.167Z,10.80
2018-11-04T05:39:06.105Z,9.27
2018-11-04T05:41:34.619Z,10.53
2018-11-04T05:44:03.008Z,9.50
2018-11-04T05:46:31.425Z,11.83
2018-11-04T05:48:59.832Z,9.43
2018-11-04T05:51:28.241Z,9.27
2018-11-04T05:53:56.610Z,10.43
2018-11-04T05:56:25.158Z,9.47
2018-11-04T05:58:53.859Z,9.07
2018-11-04T06:01:22.355Z,9.07
2018-11-04T06:03:50.700Z,9.77
2018-11-04T06:06:19.120Z,9.40
2018-11-04T06:08:47.546Z,8.37
2018-11-04T06:11:15.948Z,8.80
2018-11-04T06:13:44.420Z,8.27
2018-11-04T06:16:12.956Z,8.07
2018-11-04T06:18:41.343Z,8.77
2018-11-04T06:21:09.781Z,8.77
2018-11-04T06:23:38.201Z,8.03
2018-11-04T06:26:06.612Z,8.63
2018-11-04T06:28:35.013Z,9.07
2018-11-04T06:31:03.412Z,8.33
2018-11-04T06:33:31.837Z,9.03
2018-11-04T06:36:00.224Z,7.93
2018-11-04T06:38:28.623Z,9.77
2018-11-04T06:40:57.039Z,7.90
2018-11-04T06:43:25.439Z,8.80
2018-11-04T06:45:53.840Z,8.47
2018-11-04T06:48:22.519Z,8.63
2018-11-04T06:50:50.940Z,6.80
2018-11-04T06:53:19.335Z,8.10
2018-11-04T06:55:47.710Z,7.37
2018-11-04T06:58:16.126Z,6.97
2018-11-04T07:00:47.893Z,6.87
2018-11-04T07:03:16.282Z,7.60
2018-11-04T07:05:44.623Z,7.33
2018-11-04T07:08:13.090Z,6.90
2018-11-04T07:10:43.432Z,6.80
2018-11-04T07:13:11.929Z,6.80
2018-11-04T07:15:40.378Z,6.67
2018-11-04T07:18:08.780Z,7.00
2018-11-04T07:20:37.164Z,6.70
2018-11-04T07:23:06.815Z,6.00
2018-11-04T07:25:35.976Z,6.23
2018-11-04T07:28:04.496Z,7.67
2018-11-04T07:30:32.949Z,7.00
2018-11-04T07:33:01.452Z,7.03
2018-11-04T07:35:29.812Z,8.03
2018-11-04T07:37:58.189Z,7.13
2018-11-04T07:40:28.868Z,6.97
2018-11-04T07:42:57.312Z,7.17
2018-11-04T07:45:25.704Z,8.77
2018-11-04T07:47:54.122Z,6.87
2018-11-04T07:50:22.506Z,6.90
2018-11-04T07:52:50.929Z,7.37
2018-11-04T07:55:19.324Z,7.20
2018-11-04T07:57:47.695Z,12.63
2018-11-04T08:00:19.741Z,10.50
2018-11-04T08:02:48.129Z,8.13
2018-11-04T08:05:16.704Z,8.07
2018-11-04T08:07:45.168Z,6.87
2018-11-04T08:10:14.340Z,7.90
2018-11-04T08:12:42.815Z,7.50
2018-11-04T08:15:12.007Z,9.33
2018-11-04T08:17:40.834Z,7.43
2018-11-04T08:20:09.996Z,7.43
2018-11-04T08:22:39.251Z,7.37
2018-11-04T08:25:07.656Z,6.73
2018-11-04T08:27:36.079Z,7.00
2018-11-04T08:30:05.627Z,6.77
2018-11-04T08:32:34.289Z,7.07
2018-11-04T08:35:02.652Z,7.10
2018-11-04T08:37:31.107Z,7.23
2018-11-04T08:39:59.636Z,7.07
2018-11-04T08:42:27.982Z,7.57
2018-11-04T08:44:56.384Z,7.70
2018-11-04T08:47:24.839Z,7.30
2018-11-04T08:49:53.218Z,8.53
2018-11-04T08:52:21.651Z,7.20
2018-11-04T08:54:49.992Z,7.13
2018-11-04T08:57:18.469Z,7.43
2018-11-04T08:59:46.892Z,7.17
2018-11-04T09:02:15.344Z,6.93
2018-11-04T09:04:43.743Z,8.33
2018-11-04T09:07:12.694Z,7.47
2018-11-04T09:09:41.133Z,6.53
2018-11-04T09:12:09.605Z,9.27
2018-11-04T09:14:38.021Z,7.27
2018-11-04T09:17:07.344Z,7.10
2018-11-04T09:19:35.819Z,7.87
2018-11-04T09:22:04.489Z,6.63
2018-11-04T09:24:32.812Z,7.57
2018-11-04T09:27:01.279Z,7.27
2018-11-04T09:29:29.658Z,7.07
2018-11-04T09:31:58.019Z,7.87
2018-11-04T09:34:26.457Z,8.20
2018-11-04T09:36:54.828Z,7.10
2018-11-04T09:39:23.184Z,8.10
2018-11-04T09:41:51.686Z,6.90
2018-11-04T09:44:20.056Z,6.80
2018-11-04T09:46:48.497Z,7.07
2018-11-04T09:49:16.899Z,6.77
2018-11-04T09:51:45.332Z,6.70
2018-11-04T09:54:13.814Z,7.60
2018-11-04T09:56:42.401Z,6.20
2018-11-04T09:59:10.823Z,6.80
2018-11-04T10:01:39.216Z,6.87
2018-11-04T10:04:07.677Z,8.17
2018-11-04T10:06:36.063Z,7.63
2018-11-04T10:09:06.096Z,6.93
2018-11-04T10:11:34.550Z,7.13
2018-11-04T10:14:02.919Z,6.53
2018-11-04T10:16:31.367Z,8.33
2018-11-04T10:18:59.897Z,7.53
2018-11-04T10:21:28.400Z,6.40
2018-11-04T10:23:56.873Z,7.73
2018-11-04T10:26:25.316Z,7.03
2018-11-04T10:28:53.795Z,6.70
2018-11-04T10:31:22.169Z,8.07
2018-11-04T10:33:50.564Z,9.23
2018-11-04T10:36:19.045Z,7.40
2018-11-04T10:38:47.439Z,8.23
2018-11-04T10:41:15.929Z,7.53
2018-11-04T10:43:44.416Z,7.70
2018-11-04T10:46:12.848Z,8.27
2018-11-04T10:48:41.289Z,6.53
2018-11-04T10:51:09.772Z,7.07
2018-11-04T10:53:38.308Z,6.67
2018-11-04T10:56:07.085Z,6.37
2018-11-04T10:58:35.598Z,7.43
2018-11-04T11:01:08.037Z,5.80
2018-11-04T11:03:37.091Z,6.27
2018-11-04T11:06:05.458Z,5.77
2018-11-04T11:08:33.920Z,5.87
2018-11-04T11:11:02.391Z,5.23
2018-11-04T11:13:31.403Z,5.50
2018-11-04T11:15:59.872Z,5.30
2018-11-04T11:18:28.443Z,5.57
2018-11-04T11:20:56.856Z,5.63
2018-11-04T11:23:25.297Z,5.83
2018-11-04T11:25:53.725Z,6.50
2018-11-04T11:28:22.173Z,5.83
2018-11-04T11:30:50.586Z,5.93
2018-11-04T11:33:21.273Z,6.63
2018-11-04T11:35:49.683Z,6.30
2018-11-04T11:38:18.101Z,7.27
2018-11-04T11:40:46.631Z,6.67
2018-11-04T11:43:15.262Z,5.60
2018-11-04T11:45:43.689Z,6.60
2018-11-04T11:48:12.196Z,6.60
2018-11-04T11:50:40.622Z,5.73
2018-11-04T11:53:09.068Z,5.80
2018-11-04T11:55:37.500Z,6.13
2018-11-04T11:58:06.084Z,5.83
2018-11-04T12:00:34.515Z,6.17
2018-11-04T12:03:02.879Z,6.63
2018-11-04T12:05:31.269Z,6.50
2018-11-04T12:07:59.686Z,6.13
2018-11-04T12:10:30.405Z,6.90
2018-11-04T12:12:58.843Z,5.90
2018-11-04T12:15:27.224Z,6.80
2018-11-04T12:17:55.741Z,6.50
2018-11-04T12:20:24.076Z,6.00
2018-11-04T12:22:52.620Z,8.03
2018-11-04T12:25:21.077Z,6.70
2018-11-04T12:27:49.575Z,6.03
2018-11-04T12:30:18.960Z,6.70
2018-11-04T12:32:47.435Z,5.63
2018-11-04T12:35:16.023Z,6.33
2018-11-04T12:37:44.418Z,6.80
2018-11-04T12:40:13.606Z,6.10
2018-11-04T12:42:44.991Z,7.57
2018-11-04T12:45:14.175Z,6.07
2018-11-04T12:47:43.217Z,6.17
2018-11-04T12:50:12.713Z,6.00
2018-11-04T12:52:41.315Z,6.37
2018-11-04T12:55:10.092Z,6.77
2018-11-04T12:57:38.484Z,6.47
2018-11-04T13:00:11.100Z,6.60
2018-11-04T13:02:39.474Z,6.10
2018-11-04T13:05:09.007Z,6.77
2018-11-04T13:07:39.649Z,6.60
2018-11-04T13:10:10.646Z,6.87
2018-11-04T13:12:39.318Z,7.33
2018-11-04T13:15:09.207Z,7.47
2018-11-04T13:17:40.016Z,6.50
2018-11-04T13:20:08.552Z,7.63
2018-11-04T13:22:37.332Z,7.87
2018-11-04T13:25:06.921Z,9.23
2018-11-04T13:27:35.367Z,6.43
2018-11-04T13:30:03.829Z,7.47
2018-11-04T13:32:32.256Z,7.10
2018-11-04T13:35:00.651Z,7.17
2018-11-04T13:37:29.127Z,8.33
2018-11-04T13:39:57.556Z,6.97
2018-11-04T13:42:25.971Z,6.67
2018-11-04T13:44:54.315Z,7.37
2018-11-04T13:47:22.732Z,8.37
2018-11-04T13:49:51.191Z,8.07
2018-11-04T13:52:19.625Z,7.77
2018-11-04T13:54:48.419Z,9.90
2018-11-04T13:57:16.851Z,8.93
2018-11-04T13:59:46.405Z,8.13
2018-11-04T14:02:14.888Z,8.43
2018-11-04T14:04:43.299Z,9.53
2018-11-04T14:07:11.972Z,7.90
2018-11-04T14:09:40.404Z,8.33
2018-11-04T14:12:08.944Z,9.43
2018-11-04T14:14:37.370Z,8.40
2018-11-04T14:17:05.875Z,9.43
2018-11-04T14:19:34.356Z,10.40
2018-11-04T14:22:02.879Z,10.07
2018-11-04T14:24:33.365Z,10.10
2018-11-04T14:27:03.967Z,11.23
2018-11-04T14:29:32.416Z,9.73
2018-11-04T14:32:00.805Z,13.00
2018-11-04T14:34:29.207Z,11.20
2018-11-04T14:36:57.665Z,10.77
2018-11-04T14:39:26.101Z,12.10
2018-11-04T14:41:54.509Z,12.80
2018-11-04T14:44:22.869Z,11.30
2018-11-04T14:46:51.304Z,13.47
2018-11-04T14:49:19.740Z,13.43
2018-11-04T14:51:48.110Z,11.43
2018-11-04T14:54:16.576Z,12.80
2018-11-04T14:56:44.980Z,14.07
2018-11-04T14:59:13.428Z,16.03
2018-11-04T15:01:41.998Z,13.10
2018-11-04T15:04:10.326Z,13.13
2018-11-04T15:06:38.780Z,11.37
2018-11-04T15:09:07.992Z,11.17
2018-11-04T15:11:36.391Z,12.87
2018-11-04T15:14:05.036Z,13.27
2018-11-04T15:16:33.444Z,11.73
2018-11-04T15:19:01.951Z,12.60
2018-11-04T15:21:30.989Z,14.17
2018-11-04T15:23:59.565Z,12.97
2018-11-04T15:26:28.066Z,13.97
2018-11-04T15:28:56.443Z,12.33
2018-11-04T15:31:24.874Z,12.40
2018-11-04T15:33:53.349Z,14.07
2018-11-04T15:36:21.688Z,13.23
2018-11-04T15:38:50.248Z,15.83
2018-11-04T15:41:18.761Z,13.73
2018-11-04T15:43:47.283Z,15.30
2018-11-04T15:46:15.720Z,15.53
2018-11-04T15:48:44.204Z,13.60
2018-11-04T15:51:12.604Z,16.83
2018-11-04T15:53:41.567Z,13.63
2018-11-04T15:56:10.143Z,13.70
2018-11-04T15:58:38.696Z,14.53
2018-11-04T16:01:07.409Z,14.13
2018-11-04T16:03:35.783Z,13.47
2018-11-04T16:06:04.437Z,15.57
2018-11-04T16:08:32.810Z,13.50
2018-11-04T16:11:01.248Z,15.10
2018-11-04T16:13:30.017Z,14.87
2018-11-04T16:15:58.480Z,14.83
2018-11-04T16:18:27.087Z,16.97
2018-11-04T16:20:55.533Z,15.83
2018-11-04T16:23:23.990Z,15.27
2018-11-04T16:25:52.382Z,13.73
2018-11-04T16:28:23.283Z,15.10
2018-11-04T16:30:51.716Z,17.33
2018-11-04T16:33:20.249Z,16.80
2018-11-04T16:35:48.667Z,18.30
2018-11-04T16:38:17.116Z,17.27
2018-11-04T16:40:45.611Z,15.97
2018-11-04T16:43:14.154Z,16.80
2018-11-04T16:45:43.000Z,15.00
2018-11-04T16:48:11.417Z,16.57
2018-11-04T16:50:39.836Z,16.53
2018-11-04T16:53:08.207Z,17.33
2018-11-04T16:55:36.636Z,20.73
2018-11-04T16:58:05.432Z,15.17
2018-11-04T17:00:33.900Z,15.43
2018-11-04T17:03:04.526Z,13.63
2018-11-04T17:05:33.218Z,14.03
2018-11-04T17:08:01.508Z,13.43
2018-11-04T17:10:29.965Z,14.10
2018-11-04T17:12:58.340Z,14.53
2018-11-04T17:15:26.782Z,14.50
2018-11-04T17:17:55.240Z,15.47
2018-11-04T17:20:23.578Z,13.47
2018-11-04T17:22:52.649Z,15.30
2018-11-04T17:25:21.088Z,13.60
2018-11-04T17:27:49.534Z,18.50
2018-11-04T17:30:18.845Z,15.80
2018-11-04T17:32:47.823Z,15.10
2018-11-04T17:35:17.147Z,17.30
2018-11-04T17:37:46.445Z,16.00
2018-11-04T17:40:15.648Z,14.93
2018-11-04T17:42:44.176Z,14.40
2018-11-04T17:45:16.360Z,13.00
2018-11-04T17:47:48.204Z,15.23
2018-11-04T17:50:18.009Z,13.83
2018-11-04T17:52:46.556Z,13.17
2018-11-04T17:55:15.212Z,14.73
2018-11-04T17:57:43.975Z,15.03
2018-11-04T18:00:15.754Z,14.07
2018-11-04T18:02:44.488Z,13.40
2018-11-04T18:05:13.572Z,13.67
2018-11-04T18:07:42.787Z,15.77
2018-11-04T18:10:12.057Z,13.17
2018-11-04T18:12:40.467Z,14.80
2018-11-04T18:15:09.837Z,14.50
2018-11-04T18:17:38.249Z,12.63
2018-11-04T18:20:07.934Z,12.23
2018-11-04T18:22:36.350Z,14.77
2018-11-04T18:25:05.461Z,14.83
2018-11-04T18:27:33.888Z,14.60
2018-11-04T18:30:02.313Z,14.87
2018-11-04T18:32:30.833Z,16.40
2018-11-04T18:34:59.529Z,18.70
2018-11-04T18:37:28.020Z,18.50
2018-11-04T18:39:56.504Z,18.73
2018-11-04T18:42:24.917Z,17.00
2018-11-04T18:44:53.437Z,17.13
2018-11-04T18:47:21.801Z,15.93
2018-11-04T18:49:50.224Z,17.60
2018-11-04T18:52:18.775Z,16.70
2018-11-04T18:54:47.034Z,18.40
2018-11-04T18:57:15.409Z,23.00
2018-11-04T18:59:43.854Z,19.47
2018-11-04T19:02:12.277Z,19.23
2018-11-04T19:04:40.675Z,18.97
2018-11-04T19:07:28.904Z,20.57
2018-11-04T19:09:57.393Z,22.40
2018-11-04T19:12:26.037Z,19.23
2018-11-04T19:14:54.453Z,19.17
2018-11-04T19:17:22.883Z,19.43
2018-11-04T19:19:51.312Z,16.90
2018-11-04T19:22:19.720Z,19.40
2018-11-04T19:24:48.281Z,16.10
2018-11-04T19:27:16.808Z,18.50
2018-11-04T19:29:45.409Z,19.07
2018-11-04T19:32:13.861Z,15.80
2018-11-04T19:34:42.428Z,17.37
2018-11-04T19:37:10.881Z,18.83
2018-11-04T19:39:39.337Z,17.30
2018-11-04T19:42:08.159Z,17.20
2018-11-04T19:44:36.795Z,16.63
2018-11-04T19:47:06.313Z,17.60
2018-11-04T19:49:34.798Z,17.07
2018-11-04T19:52:03.343Z,17.00
2018-11-04T19:54:31.786Z,19.77
2018-11-04T19:57:00.446Z,24.17
2018-11-04T19:59:28.912Z,23.43
2018-11-04T20:01:57.333Z,24.30
2018-11-04T20:04:25.810Z,24.60
2018-11-04T20:06:54.328Z,20.30
2018-11-04T20:09:22.728Z,20.00
2018-11-04T20:11:51.170Z,21.80
2018-11-04T20:14:22.903Z,21.33
2018-11-04T20:16:52.503Z,21.10
2018-11-04T20:20:24.851Z,25.03
2018-11-04T20:22:53.337Z,26.50
2018-11-04T20:25:27.268Z,27.53
2018-11-04T20:27:55.621Z,26.17
2018-11-04T20:30:24.054Z,24.83
2018-11-04T20:32:57.990Z,27.37
2018-11-04T20:35:26.454Z,30.43
2018-11-04T20:37:54.855Z,27.00
2018-11-04T20:40:28.660Z,31.10
2018-11-04T20:42:57.212Z,27.00
2018-11-04T20:45:25.693Z,33.20
2018-11-04T20:48:00.333Z,30.73
2018-11-04T20:50:34.326Z,31.83
2018-11-04T20:53:02.968Z,26.57
2018-11-04T20:55:36.833Z,27.77
2018-11-04T20:58:05.634Z,31.97
2018-11-04T21:00:34.096Z,29.30
2018-11-04T21:03:06.054Z,31.17
2018-11-04T21:05:34.541Z,26.73
2018-11-04T21:08:02.944Z,30.07
2018-11-04T21:10:31.316Z,35.13
2018-11-04T21:12:59.728Z,35.80
2018-11-04T21:15:28.199Z,33.43
2018-11-04T21:17:56.579Z,36.33
2018-11-04T21:20:24.986Z,36.70
2018-11-04T21:22:53.476Z,34.43
2018-11-04T21:25:21.911Z,35.40
2018-11-04T21:27:50.913Z,37.77
2018-11-04T21:30:19.322Z,35.73
2018-11-04T21:32:47.745Z,35.63
2018-11-04T21:35:16.220Z,40.83
2018-11-04T21:37:44.728Z,33.90
2018-11-04T21:40:13.047Z,39.30
2018-11-04T21:42:41.667Z,35.50
2018-11-04T21:45:12.003Z,38.13
2018-11-04T21:47:40.475Z,35.73
2018-11-04T21:50:09.484Z,35.07
2018-11-04T21:52:37.990Z,35.33
2018-11-04T21:55:08.431Z,35.10
2018-11-04T21:57:36.824Z,34.77
2018-11-04T22:00:07.380Z,33.60
2018-11-04T22:02:35.992Z,34.23
2018-11-04T22:05:04.212Z,37.43
2018-11-04T22:07:32.615Z,36.97
2018-11-04T22:10:01.208Z,37.77
2018-11-04T22:12:29.668Z,38.73
2018-11-04T22:14:58.309Z,39.03
2018-11-04T22:17:26.721Z,33.47
2018-11-04T22:19:55.200Z,36.33
2018-11-04T22:22:23.612Z,39.37
2018-11-04T22:24:52.056Z,41.30
2018-11-04T22:27:20.456Z,39.87
2018-11-04T22:29:48.930Z,39.07
2018-11-04T22:32:19.595Z,38.43
2018-11-04T22:34:48.031Z,41.83
2018-11-04T22:37:16.473Z,37.97
2018-11-04T22:39:44.963Z,42.53
2018-11-04T22:42:13.442Z,42.30
2018-11-04T22:44:41.831Z,42.53
2018-11-04T22:47:10.301Z,37.57
2018-11-04T22:49:38.708Z,36.67
2018-11-04T22:52:07.131Z,38.23
2018-11-04T22:54:35.564Z,39.33
2018-11-04T22:57:03.981Z,35.23
2018-11-04T22:59:32.393Z,39.57
2018-11-04T23:02:00.870Z,39.30
2018-11-04T23:04:34.514Z,38.30
2018-11-04T23:07:07.980Z,37.87
2018-11-04T23:09:36.418Z,36.83
2018-11-04T23:12:05.324Z,40.67
2018-11-04T23:14:33.740Z,37.90
2018-11-04T23:17:02.165Z,38.90
2018-11-04T23:19:32.816Z,34.17
2018-11-04T23:22:01.241Z,36.40
2018-11-04T23:24:29.625Z,36.30
2018-11-04T23:26:58.086Z,33.47
2018-11-04T23:29:26.461Z,37.37
2018-11-04T23:31:54.919Z,35.07
2018-11-04T23:34:23.268Z,35.37
2018-11-04T23:36:51.715Z,35.23
2018-11-04T23:39:20.124Z,39.20
2018-11-04T23:41:48.540Z,33.07
2018-11-04T23:44:16.940Z,34.27
2018-11-04T23:46:45.370Z,39.60
2018-11-04T23:49:13.907Z,39.97
2018-11-04T23:51:42.332Z,38.43
2018-11-04T23:54:11.204Z,36.37
2018-11-04T23:56:39.555Z,39.13
2018-11-04T23:59:07.951Z,34.83
